createdAt,value
2023-03-05T00:01:57.994Z,101527.66
2023-03-05T00:05:02.600Z,101524.22
2023-03-05T00:08:06.924Z,101511.09
2023-03-05T00:11:14.181Z,101514.47
2023-03-05T00:14:18.145Z,101512.91
2023-03-05T00:17:22.550Z,101492.47
2023-03-05T00:20:26.789Z,101491.47
2023-03-05T00:23:31.004Z,101466.03
2023-03-05T00:26:37.837Z,101434.97
2023-03-05T00:29:42.384Z,101497.59
2023-03-05T00:32:46.306Z,101482.47
2023-03-05T00:35:50.476Z,101494.97
2023-03-05T00:38:54.760Z,101467.59
2023-03-05T00:41:59.104Z,101490.78
2023-03-05T00:45:02.922Z,101481.41
2023-03-05T00:48:07.488Z,101467.31
2023-03-05T00:51:12.125Z,101457.84
2023-03-05T00:54:16.408Z,101457.38
2023-03-05T00:57:20.732Z,101402.53
2023-03-05T01:00:24.652Z,101446.63
2023-03-05T01:03:28.929Z,101433.97
2023-03-05T01:06:33.942Z,101411.91
2023-03-05T01:09:38.708Z,101442.28
2023-03-05T01:12:43.332Z,101431.66
2023-03-05T01:15:49.540Z,101418.84
2023-03-05T01:18:53.879Z,101449.97
2023-03-05T01:21:57.950Z,101449.28
2023-03-05T01:25:02.378Z,101423.69
2023-03-05T01:28:07.339Z,101442.22
2023-03-05T01:31:12.594Z,101430.88
2023-03-05T01:34:16.838Z,101420.66
2023-03-05T01:37:21.412Z,101415.41
2023-03-05T01:40:30.805Z,101416.00
2023-03-05T01:43:34.669Z,101406.16
2023-03-05T01:46:39.682Z,101375.75
2023-03-05T01:49:43.717Z,101395.09
2023-03-05T01:53:00.291Z,101376.69
2023-03-05T01:56:05.063Z,101376.69
2023-03-05T01:59:09.951Z,101386.47
2023-03-05T02:02:15.132Z,101393.19
2023-03-05T02:05:31.466Z,101386.16
2023-03-05T02:08:36.460Z,101386.44
2023-03-05T02:11:41.215Z,101376.72
2023-03-05T02:14:52.109Z,101363.47
2023-03-05T02:17:56.590Z,101371.13
2023-03-05T02:21:10.173Z,101363.16
2023-03-05T02:24:16.379Z,101367.59
2023-03-05T02:27:26.176Z,101365.91
2023-03-05T02:30:32.259Z,101355.34
2023-03-05T02:33:36.912Z,101358.94
2023-03-05T02:36:44.944Z,101337.75
2023-03-05T02:39:49.107Z,101354.69
2023-03-05T02:42:53.307Z,101345.00
2023-03-05T02:45:58.381Z,101339.78
2023-03-05T02:49:02.312Z,101331.88
2023-03-05T02:52:06.858Z,101330.06
2023-03-05T02:55:11.919Z,101323.81
2023-03-05T02:58:17.722Z,101316.78
2023-03-05T03:01:21.875Z,101307.91
2023-03-05T03:04:26.796Z,101288.72
2023-03-05T03:07:31.122Z,101292.19
2023-03-05T03:10:35.765Z,101230.59
2023-03-05T03:13:40.875Z,101266.00
2023-03-05T03:16:45.831Z,101261.53
2023-03-05T03:19:50.389Z,101229.72
2023-03-05T03:22:54.335Z,101243.06
2023-03-05T03:25:58.977Z,101249.06
2023-03-05T03:29:04.278Z,101212.03
2023-03-05T03:32:09.479Z,101227.06
2023-03-05T03:35:14.994Z,101214.91
2023-03-05T03:38:19.328Z,101202.34
2023-03-05T03:41:23.244Z,101184.00
2023-03-05T03:44:29.606Z,101170.88
2023-03-05T03:47:34.188Z,101172.84
2023-03-05T03:50:42.865Z,101158.69
2023-03-05T03:53:47.201Z,101153.53
2023-03-05T03:56:51.651Z,101154.44
2023-03-05T03:59:56.315Z,101139.44
2023-03-05T04:03:00.634Z,101135.09
2023-03-05T04:06:05.469Z,101138.66
2023-03-05T04:09:10.666Z,101128.09
2023-03-05T04:12:18.867Z,101111.38
2023-03-05T04:15:23.201Z,101105.25
2023-03-05T04:18:27.701Z,101088.53
2023-03-05T04:21:32.266Z,101088.56
2023-03-05T04:24:36.653Z,101086.69
2023-03-05T04:27:43.864Z,101081.50
2023-03-05T04:30:48.469Z,101078.84
2023-03-05T04:33:52.867Z,101071.84
2023-03-05T04:36:57.276Z,101047.25
2023-03-05T04:40:02.190Z,101069.22
2023-03-05T04:43:06.703Z,101058.72
2023-03-05T04:46:11.053Z,101053.38
2023-03-05T04:49:16.656Z,101036.72
2023-03-05T04:52:20.725Z,101044.59
2023-03-05T04:55:25.050Z,101035.00
2023-03-05T04:58:29.657Z,101030.56
2023-03-05T05:01:35.991Z,101024.41
2023-03-05T05:04:41.340Z,101016.47
2023-03-05T05:07:45.794Z,101025.31
2023-03-05T05:10:58.209Z,101012.97
2023-03-05T05:14:02.731Z,101007.69
2023-03-05T05:17:06.736Z,100992.75
2023-03-05T05:20:13.278Z,100983.06
2023-03-05T05:23:18.006Z,101005.00
2023-03-05T05:26:22.321Z,101004.13
2023-03-05T05:29:26.945Z,100992.75
2023-03-05T05:32:31.371Z,101000.63
2023-03-05T05:35:35.697Z,101003.25
2023-03-05T05:38:40.530Z,100993.56
2023-03-05T05:41:45.492Z,100994.41
2023-03-05T05:44:49.785Z,100991.78
2023-03-05T05:47:53.538Z,100984.72
2023-03-05T05:50:58.381Z,100986.47
2023-03-05T05:54:02.915Z,100963.59
2023-03-05T05:57:07.697Z,100964.47
2023-03-05T06:00:14.778Z,100941.56
2023-03-05T06:03:22.156Z,100953.91
2023-03-05T06:06:27.847Z,100958.25
2023-03-05T06:09:31.731Z,100954.72
2023-03-05T06:12:36.056Z,100941.56
2023-03-05T06:15:40.500Z,100952.06
2023-03-05T06:18:46.592Z,100933.66
2023-03-05T06:21:50.839Z,100945.81
2023-03-05T06:24:55.088Z,100922.94
2023-03-05T06:27:59.568Z,100929.84
2023-03-05T06:31:17.222Z,100926.31
2023-03-05T06:34:21.593Z,100919.28
2023-03-05T06:37:26.116Z,100910.47
2023-03-05T06:40:30.789Z,100908.66
2023-03-05T06:43:36.379Z,100903.44
2023-03-05T06:46:42.151Z,100895.53
2023-03-05T06:49:48.745Z,100884.13
2023-03-05T06:52:53.327Z,100896.47
2023-03-05T06:55:57.696Z,100888.47
2023-03-05T06:59:01.810Z,100889.41
2023-03-05T07:02:06.241Z,100877.00
2023-03-05T07:05:11.008Z,100880.50
2023-03-05T07:08:15.282Z,100844.47
2023-03-05T07:11:22.156Z,100874.31
2023-03-05T07:14:26.062Z,100870.78
2023-03-05T07:17:31.072Z,100862.94
2023-03-05T07:20:37.163Z,100862.06
2023-03-05T07:23:41.406Z,100865.72
2023-03-05T07:26:46.939Z,100864.88
2023-03-05T07:29:51.874Z,100864.06
2023-03-05T07:32:56.163Z,100857.91
2023-03-05T07:36:00.326Z,100862.34
2023-03-05T07:39:06.016Z,100863.25
2023-03-05T07:42:10.500Z,100862.34
2023-03-05T07:45:28.271Z,100855.47
2023-03-05T07:48:32.585Z,100839.66
2023-03-05T07:51:37.039Z,100839.69
2023-03-05T07:54:41.609Z,100862.50
2023-03-05T07:57:46.135Z,100859.03
2023-03-05T08:00:50.675Z,100852.88
2023-03-05T08:03:55.238Z,100848.53
2023-03-05T08:07:00.695Z,100852.94
2023-03-05T08:10:06.726Z,100847.69
2023-03-05T08:13:11.045Z,100838.94
2023-03-05T08:16:20.995Z,100831.88
2023-03-05T08:19:25.448Z,100782.75
2023-03-05T08:22:30.099Z,100820.50
2023-03-05T08:25:38.712Z,100840.72
2023-03-05T08:28:42.784Z,100850.44
2023-03-05T08:31:48.163Z,100832.88
2023-03-05T08:34:53.078Z,100793.34
2023-03-05T08:37:57.472Z,100822.34
2023-03-05T08:41:02.300Z,100793.38
2023-03-05T08:44:06.806Z,100810.94
2023-03-05T08:47:11.652Z,100825.84
2023-03-05T08:50:15.612Z,100810.91
2023-03-05T08:53:19.568Z,100820.41
2023-03-05T08:56:23.933Z,100806.16
2023-03-05T08:59:28.466Z,100825.47
2023-03-05T09:02:32.794Z,100799.25
2023-03-05T09:05:39.039Z,100773.78
2023-03-05T09:08:43.418Z,100827.31
2023-03-05T09:11:48.820Z,100820.25
2023-03-05T09:14:56.533Z,100799.78
2023-03-05T09:18:00.826Z,100825.97
2023-03-05T09:21:14.107Z,100795.59
2023-03-05T09:24:18.438Z,100786.81
2023-03-05T09:27:22.958Z,100805.59
2023-03-05T09:30:28.749Z,100801.28
2023-03-05T09:33:33.912Z,100801.81
2023-03-05T09:36:38.502Z,100801.81
2023-03-05T09:39:43.200Z,100806.41
2023-03-05T09:43:21.941Z,100782.72
2023-03-05T09:46:31.009Z,100795.09
2023-03-05T09:49:55.380Z,100790.88
2023-03-05T09:53:17.619Z,100775.00
2023-03-05T09:56:25.707Z,100771.66
2023-03-05T09:59:30.021Z,100768.94
2023-03-05T10:02:38.268Z,100773.00
2023-03-05T10:06:04.454Z,100740.81
2023-03-05T10:09:18.588Z,100747.19
2023-03-05T10:12:39.940Z,100747.22
2023-03-05T10:16:01.868Z,100741.16
2023-03-05T10:19:24.431Z,100729.38
2023-03-05T10:23:01.243Z,100746.75
2023-03-05T10:26:13.117Z,100743.16
2023-03-05T10:29:35.806Z,100738.88
2023-03-05T10:33:33.708Z,100672.69
2023-03-05T10:36:52.976Z,100733.78
2023-03-05T10:40:21.625Z,100744.03
2023-03-05T10:43:49.687Z,100713.28
2023-03-05T10:47:00.820Z,100703.56
2023-03-05T10:50:20.900Z,100717.06
2023-03-05T10:53:37.855Z,100729.09
2023-03-05T10:56:42.294Z,100661.66
2023-03-05T10:59:53.661Z,100688.09
2023-03-05T11:03:07.754Z,100689.13
2023-03-05T11:06:14.647Z,100695.16
2023-03-05T11:09:33.251Z,100697.84
2023-03-05T11:12:39.830Z,100693.41
2023-03-05T11:15:44.189Z,100665.22
2023-03-05T11:18:49.026Z,100699.59
2023-03-05T11:22:19.948Z,100685.69
2023-03-05T11:25:27.139Z,100683.28
2023-03-05T11:28:40.406Z,100633.38
2023-03-05T11:31:44.702Z,100666.63
2023-03-05T11:34:49.357Z,100675.44
2023-03-05T11:38:03.225Z,100681.53
2023-03-05T11:41:11.176Z,100685.94
2023-03-05T11:44:29.400Z,100671.94
2023-03-05T11:47:33.694Z,100677.13
2023-03-05T11:50:42.677Z,100651.78
2023-03-05T11:53:51.542Z,100662.38
2023-03-05T11:56:56.717Z,100650.19
2023-03-05T12:00:12.236Z,100650.13
2023-03-05T12:03:24.559Z,100647.22
2023-03-05T12:07:01.306Z,100656.69
2023-03-05T12:10:06.305Z,100641.03
2023-03-05T12:13:43.090Z,100649.03
2023-03-05T12:16:54.658Z,100638.41
2023-03-05T12:20:15.879Z,100633.97
2023-03-05T12:23:25.101Z,100619.09
2023-03-05T12:26:54.439Z,100622.50
2023-03-05T12:30:02.412Z,100616.41
2023-03-05T12:38:36.647Z,100612.69
2023-03-05T12:41:41.778Z,100596.56
2023-03-05T12:44:46.363Z,100610.19
2023-03-05T12:48:13.032Z,100613.63
2023-03-05T12:51:33.068Z,100610.66
2023-03-05T12:54:46.734Z,100614.84
2023-03-05T12:58:15.090Z,100603.66
2023-03-05T13:02:16.713Z,100571.41
2023-03-05T13:05:36.924Z,100595.06
2023-03-05T13:08:41.441Z,100567.03
2023-03-05T13:11:54.201Z,100595.72
2023-03-05T13:15:04.282Z,100588.72
2023-03-05T13:18:22.796Z,100566.94
2023-03-05T13:21:39.162Z,100570.47
2023-03-05T13:24:43.830Z,100563.38
2023-03-05T13:27:48.105Z,100566.06
2023-03-05T13:31:03.463Z,100575.28
2023-03-05T13:34:14.925Z,100557.44
2023-03-05T13:37:23.002Z,100572.44
2023-03-05T13:40:32.881Z,100554.88
2023-03-05T13:43:51.444Z,100559.22
2023-03-05T13:47:07.075Z,100554.81
2023-03-05T13:50:25.007Z,100487.03
2023-03-05T13:53:34.878Z,100546.31
2023-03-05T13:56:49.805Z,100553.97
2023-03-05T13:59:54.937Z,100546.84
2023-03-05T14:03:22.002Z,100547.06
2023-03-05T14:06:29.288Z,100534.59
2023-03-05T14:09:48.055Z,100537.53
2023-03-05T14:12:52.978Z,100542.69
2023-03-05T14:16:28.613Z,100533.06
2023-03-05T14:19:35.700Z,100520.97
2023-03-05T14:22:42.841Z,100527.13
2023-03-05T14:25:50.403Z,100516.44
2023-03-05T14:28:57.706Z,100514.81
2023-03-05T14:32:09.449Z,100512.00
2023-03-05T14:35:25.495Z,100495.16
2023-03-05T14:38:32.879Z,100497.69
2023-03-05T14:41:43.879Z,100507.19
2023-03-05T14:44:48.447Z,100454.09
2023-03-05T14:47:54.460Z,100499.66
2023-03-05T14:50:59.185Z,100495.88
2023-03-05T14:54:03.531Z,100486.41
2023-03-05T14:57:07.964Z,100473.38
2023-03-05T15:00:26.924Z,100486.41
2023-03-05T15:03:33.878Z,100479.41
2023-03-05T15:06:41.324Z,100489.16
2023-03-05T15:09:45.712Z,100497.63
2023-03-05T15:12:57.224Z,100496.66
2023-03-05T15:16:07.398Z,100474.31
2023-03-05T15:19:14.904Z,100466.69
2023-03-05T15:22:19.368Z,100469.41
2023-03-05T15:25:27.571Z,100460.69
2023-03-05T15:28:31.844Z,100458.19
2023-03-05T15:31:39.517Z,100456.41
2023-03-05T15:34:44.232Z,100453.75
2023-03-05T15:37:49.101Z,100452.72
2023-03-05T15:40:53.346Z,100433.41
2023-03-05T15:43:57.322Z,100441.34
2023-03-05T15:47:01.659Z,100450.09
2023-03-05T15:50:07.063Z,100444.88
2023-03-05T15:53:12.986Z,100423.84
2023-03-05T15:56:18.838Z,100416.84
2023-03-05T15:59:23.208Z,100393.19
2023-03-05T16:02:27.659Z,100433.47
2023-03-05T16:05:36.880Z,100426.50
2023-03-05T16:08:44.663Z,100428.22
2023-03-05T16:11:52.277Z,100408.03
2023-03-05T16:14:56.903Z,100429.22
2023-03-05T16:18:05.656Z,100427.38
2023-03-05T16:21:11.019Z,100432.59
2023-03-05T16:24:15.596Z,100400.25
2023-03-05T16:27:20.355Z,100416.84
2023-03-05T16:30:24.358Z,100425.59
2023-03-05T16:33:28.707Z,100420.28
2023-03-05T16:36:36.165Z,100416.75
2023-03-05T16:39:41.641Z,100416.84
2023-03-05T16:42:46.169Z,100404.63
2023-03-05T16:45:50.486Z,100424.69
2023-03-05T16:48:55.325Z,100388.75
2023-03-05T16:52:06.212Z,100412.34
2023-03-05T16:55:20.860Z,100415.88
2023-03-05T16:58:25.247Z,100403.63
2023-03-05T17:01:31.163Z,100407.97
2023-03-05T17:04:36.693Z,100392.38
2023-03-05T17:07:41.073Z,100399.31
2023-03-05T17:10:45.005Z,100402.03
2023-03-05T17:13:49.322Z,100402.94
2023-03-05T17:16:53.988Z,100371.34
2023-03-05T17:19:58.523Z,100391.56
2023-03-05T17:23:03.520Z,100392.41
2023-03-05T17:26:13.923Z,100389.91
2023-03-05T17:29:19.819Z,100392.34
2023-03-05T17:32:24.228Z,100382.84
2023-03-05T17:35:28.751Z,100387.22
2023-03-05T17:38:33.916Z,100385.38
2023-03-05T17:41:38.383Z,100390.69
2023-03-05T17:44:43.497Z,100374.03
2023-03-05T17:47:48.014Z,100353.94
2023-03-05T17:50:52.480Z,100369.72
2023-03-05T17:53:57.256Z,100375.88
2023-03-05T17:57:01.712Z,100349.50
2023-03-05T18:00:07.236Z,100347.84
2023-03-05T18:03:16.281Z,100362.75
2023-03-05T18:06:20.724Z,100363.63
2023-03-05T18:09:28.207Z,100365.44
2023-03-05T18:12:34.186Z,100339.06
2023-03-05T18:15:42.383Z,100336.44
2023-03-05T18:18:46.910Z,100348.81
2023-03-05T18:21:52.565Z,100348.78
2023-03-05T18:24:56.966Z,100348.72
2023-03-05T18:28:03.542Z,100360.22
2023-03-05T18:31:08.828Z,100337.47
2023-03-05T18:34:13.210Z,100348.00
2023-03-05T18:37:17.510Z,100346.13
2023-03-05T18:40:24.408Z,100361.09
2023-03-05T18:43:29.245Z,100347.91
2023-03-05T18:46:33.578Z,100359.44
2023-03-05T18:49:37.904Z,100361.97
2023-03-05T18:52:43.493Z,100369.88
2023-03-05T18:55:48.818Z,100369.81
2023-03-05T18:58:54.093Z,100366.22
2023-03-05T19:01:57.931Z,100361.00
2023-03-05T19:05:02.808Z,100366.28
2023-03-05T19:08:10.606Z,100366.25
2023-03-05T19:11:18.338Z,100382.03
2023-03-05T19:14:22.918Z,100378.41
2023-03-05T19:17:27.922Z,100381.00
2023-03-05T19:20:32.866Z,100388.75
2023-03-05T19:23:37.758Z,100393.94
2023-03-05T19:26:42.617Z,100391.44
2023-03-05T19:29:47.007Z,100366.09
2023-03-05T19:32:51.608Z,100397.47
2023-03-05T19:35:56.234Z,100393.03
2023-03-05T19:39:00.846Z,100399.25
2023-03-05T19:42:05.640Z,100408.06
2023-03-05T19:45:10.917Z,100408.13
2023-03-05T19:48:15.194Z,100402.03
2023-03-05T19:51:22.193Z,100409.75
2023-03-05T19:54:26.570Z,100407.09
2023-03-05T19:57:31.155Z,100400.13
2023-03-05T20:00:35.415Z,100401.97
2023-03-05T20:03:39.646Z,100411.34
2023-03-05T20:06:44.098Z,100416.47
2023-03-05T20:09:50.992Z,100421.06
2023-03-05T20:12:55.455Z,100412.28
2023-03-05T20:16:00.219Z,100421.09
2023-03-05T20:19:06.484Z,100429.66
2023-03-05T20:22:11.033Z,100441.63
2023-03-05T20:25:17.692Z,100433.81
2023-03-05T20:28:26.693Z,100436.38
2023-03-05T20:31:31.041Z,100444.31
2023-03-05T20:34:35.442Z,100431.16
2023-03-05T20:37:50.138Z,100429.34
2023-03-05T20:41:00.305Z,100433.00
2023-03-05T20:44:04.603Z,100432.25
2023-03-05T20:47:26.799Z,100437.38
2023-03-05T20:50:30.956Z,100434.69
2023-03-05T20:53:34.875Z,100438.00
2023-03-05T20:56:39.037Z,100428.31
2023-03-05T20:59:43.260Z,100437.09
2023-03-05T21:02:47.671Z,100440.56
2023-03-05T21:05:51.966Z,100447.44
2023-03-05T21:08:56.564Z,100440.50
2023-03-05T21:12:00.547Z,100432.66
2023-03-05T21:15:04.644Z,100450.06
2023-03-05T21:18:08.636Z,100437.63
2023-03-05T21:21:12.993Z,100435.94
2023-03-05T21:24:18.638Z,100456.19
2023-03-05T21:27:23.163Z,100451.88
2023-03-05T21:30:35.421Z,100457.75
2023-03-05T21:33:39.367Z,100457.94
2023-03-05T21:36:43.166Z,100456.72
2023-03-05T21:39:47.540Z,100438.41
2023-03-05T21:42:51.658Z,100450.72
2023-03-05T21:45:57.969Z,100459.56
2023-03-05T21:49:02.548Z,100462.13
2023-03-05T21:52:10.412Z,100458.97
2023-03-05T21:55:18.696Z,100461.09
2023-03-05T21:58:23.006Z,100463.34
2023-03-05T22:01:27.342Z,100464.06
2023-03-05T22:04:31.358Z,100453.56
2023-03-05T22:07:35.713Z,100471.06
2023-03-05T22:10:41.656Z,100448.19
2023-03-05T22:13:46.298Z,100463.84
2023-03-05T22:16:55.701Z,100470.13
2023-03-05T22:20:00.216Z,100449.94
2023-03-05T22:23:05.389Z,100468.47
2023-03-05T22:26:09.688Z,100449.31
2023-03-05T22:29:14.096Z,100463.91
2023-03-05T22:32:18.841Z,100410.44
2023-03-05T22:35:23.424Z,100441.47
2023-03-05T22:38:28.247Z,100471.56
2023-03-05T22:41:32.643Z,100460.69
2023-03-05T22:44:36.488Z,100481.94
2023-03-05T22:47:41.066Z,100467.38
2023-03-05T22:50:45.527Z,100492.94
2023-03-05T22:53:49.972Z,100465.00
2023-03-05T22:56:54.441Z,100491.31
2023-03-05T22:59:59.203Z,100472.91
2023-03-05T23:03:04.159Z,100489.78
2023-03-05T23:06:08.462Z,100474.03
2023-03-05T23:09:12.748Z,100489.00
2023-03-05T23:12:17.758Z,100503.03
2023-03-05T23:15:32.170Z,100503.88
2023-03-05T23:18:36.410Z,100515.31
2023-03-05T23:21:40.396Z,100484.59
2023-03-05T23:24:45.523Z,100492.50
2023-03-05T23:27:50.495Z,100499.53
2023-03-05T23:30:54.850Z,100514.44
2023-03-05T23:33:59.392Z,100512.81
2023-03-05T23:37:04.034Z,100496.13
2023-03-05T23:40:10.475Z,100491.75
2023-03-05T23:43:20.371Z,100478.66
2023-03-05T23:46:25.051Z,100500.53
2023-03-05T23:49:29.821Z,100504.03
2023-03-05T23:52:34.329Z,100505.78
2023-03-05T23:55:43.303Z,100511.03
2023-03-05T23:58:49.952Z,100490.03
